Time;durP1;ratioP1;P1;durP2;ratioP2;P2;SDS_P1;SDS_P2;PMS_P1;PMS_P2;Temp;Humidity;BMP_temperature;BMP_pressure;BME280_temperature;BME280_humidity;BME280_pressure;Samples;Min_cycle;Max_cycle;Signal;HPM_P1;HPM_P2
2023/05/10 00:01:43;;;;;;;2.00;1.90;;;;;;;;;;10444117;28;20226;-76
2023/05/10 00:06:44;;;;;;;1.85;1.80;;;;;;;;;;10447074;28;20715;-76
2023/05/10 00:11:45;;;;;;;2.03;1.92;;;;;;;;;;10446723;28;20226;-77
2023/05/10 00:16:46;;;;;;;1.98;1.98;;;;;;;;;;10445032;28;20222;-76
2023/05/10 00:21:47;;;;;;;1.60;1.60;;;;;;;;;;10444949;28;20227;-78
2023/05/10 00:26:48;;;;;;;1.73;1.73;;;;;;;;;;10442818;28;20597;-75
2023/05/10 00:31:49;;;;;;;1.77;1.70;;;;;;;;;;10446558;28;20221;-77
2023/05/10 00:36:50;;;;;;;1.85;1.85;;;;;;;;;;10445171;28;20284;-75
2023/05/10 00:41:51;;;;;;;3.60;1.52;;;;;;;;;;10449311;28;20305;-75
2023/05/10 00:46:53;;;;;;;1.90;1.85;;;;;;;;;;10426834;28;20237;-76
2023/05/10 00:51:54;;;;;;;1.67;1.60;;;;;;;;;;10419199;28;20218;-76
2023/05/10 00:56:56;;;;;;;1.98;1.80;;;;;;;;;;10423989;28;20214;-76
2023/05/10 01:01:58;;;;;;;1.85;1.83;;;;;;;;;;10428302;28;20217;-73
2023/05/10 01:06:59;;;;;;;2.60;2.00;;;;;;;;;;10420802;28;20238;-76
2023/05/10 01:12:01;;;;;;;3.30;2.00;;;;;;;;;;10406907;28;20220;-75
2023/05/10 01:17:05;;;;;;;2.40;2.05;;;;;;;;;;10446560;28;20304;-76
2023/05/10 01:22:06;;;;;;;1.98;1.90;;;;;;;;;;10432593;28;20221;-75
2023/05/10 01:27:27;;;;;;;1.58;1.58;;;;;;;;;;10408196;28;20246;-76
2023/05/10 01:32:36;;;;;;;1.83;1.80;;;;;;;;;;10414800;28;20230;-76
2023/05/10 01:37:47;;;;;;;2.63;1.90;;;;;;;;;;10432915;28;20301;-76
2023/05/10 01:42:50;;;;;;;4.43;1.90;;;;;;;;;;10445728;28;20242;-75
2023/05/10 01:48:14;;;;;;;1.60;1.50;;;;;;;;;;10452024;28;20309;-74
2023/05/10 01:53:18;;;;;;;1.90;1.75;;;;;;;;;;10446076;28;20228;-74
2023/05/10 01:58:28;;;;;;;3.60;2.13;;;;;;;;;;10432894;28;20222;-75
2023/05/10 02:03:31;;;;;;;2.63;2.20;;;;;;;;;;10412942;28;20723;-75
2023/05/10 02:08:35;;;;;;;1.70;1.70;;;;;;;;;;10432833;28;20219;-75
2023/05/10 02:13:39;;;;;;;9.07;2.45;;;;;;;;;;10403839;28;20223;-76
2023/05/10 02:18:41;;;;;;;2.17;2.08;;;;;;;;;;10429170;28;20222;-78
2023/05/10 02:23:43;;;;;;;1.75;1.73;;;;;;;;;;10416914;28;20214;-76
2023/05/10 02:28:44;;;;;;;1.85;1.85;;;;;;;;;;10432444;28;20237;-77
2023/05/10 02:33:46;;;;;;;1.90;1.60;;;;;;;;;;10446589;28;20587;-74
2023/05/10 02:38:47;;;;;;;2.05;1.95;;;;;;;;;;10433862;28;20222;-74
2023/05/10 02:43:52;;;;;;;1.92;1.92;;;;;;;;;;10430421;28;20317;-74
2023/05/10 02:48:53;;;;;;;2.67;1.80;;;;;;;;;;10429125;28;20692;-74
2023/05/10 02:53:54;;;;;;;2.47;1.92;;;;;;;;;;10409536;28;20215;-77
2023/05/10 02:58:55;;;;;;;1.80;1.77;;;;;;;;;;10446444;28;20207;-76
2023/05/10 03:03:57;;;;;;;2.15;1.67;;;;;;;;;;10394788;28;20214;-74
2023/05/10 03:08:58;;;;;;;1.90;1.80;;;;;;;;;;10400017;28;20210;-78
2023/05/10 03:14:28;;;;;;;1.67;1.67;;;;;;;;;;10421754;28;20246;-74
2023/05/10 03:19:35;;;;;;;1.80;1.70;;;;;;;;;;10357219;28;20215;-75
2023/05/10 03:24:40;;;;;;;1.50;1.40;;;;;;;;;;10405472;28;20229;-77
2023/05/10 03:29:42;;;;;;;2.17;1.88;;;;;;;;;;10391848;28;20245;-76
2023/05/10 03:34:43;;;;;;;2.17;1.80;;;;;;;;;;10401330;28;20250;-74
2023/05/10 03:39:45;;;;;;;2.92;1.80;;;;;;;;;;10410142;28;20625;-75
2023/05/10 03:44:46;;;;;;;2.03;1.98;;;;;;;;;;10401716;28;20223;-75
2023/05/10 03:49:47;;;;;;;1.98;1.88;;;;;;;;;;10418724;28;20226;-76
2023/05/10 03:54:48;;;;;;;2.33;2.20;;;;;;;;;;10420411;28;20692;-74
2023/05/10 03:59:49;;;;;;;1.67;1.67;;;;;;;;;;10398737;28;20209;-74
2023/05/10 04:04:51;;;;;;;1.88;1.80;;;;;;;;;;10400886;28;20758;-78
2023/05/10 04:09:53;;;;;;;1.98;1.70;;;;;;;;;;10391080;28;20271;-76
2023/05/10 04:14:54;;;;;;;1.58;1.58;;;;;;;;;;10398530;28;20217;-75
2023/05/10 04:19:56;;;;;;;1.42;1.33;;;;;;;;;;10418022;28;20590;-76
2023/05/10 04:24:57;;;;;;;1.70;1.70;;;;;;;;;;10412891;28;20222;-76
2023/05/10 04:29:58;;;;;;;1.50;1.35;;;;;;;;;;10414122;28;20211;-76
2023/05/10 04:34:59;;;;;;;5.18;1.52;;;;;;;;;;10410184;28;20218;-78
2023/05/10 04:40:00;;;;;;;2.05;1.95;;;;;;;;;;10402753;28;20241;-77
2023/05/10 04:45:01;;;;;;;2.17;1.70;;;;;;;;;;10415931;28;20216;-77
2023/05/10 04:50:02;;;;;;;2.40;1.83;;;;;;;;;;10420323;28;20227;-77
2023/05/10 04:55:03;;;;;;;1.90;1.70;;;;;;;;;;10405202;28;20305;-78
2023/05/10 05:00:05;;;;;;;1.98;1.85;;;;;;;;;;10384943;28;20304;-77
2023/05/10 05:05:06;;;;;;;2.13;1.73;;;;;;;;;;10416708;28;20229;-77
2023/05/10 05:10:08;;;;;;;0.80;0.80;;;;;;;;;;10420526;28;20222;-78
2023/05/10 05:15:09;;;;;;;3.42;1.80;;;;;;;;;;10414592;28;20219;-76
2023/05/10 05:20:11;;;;;;;2.05;1.95;;;;;;;;;;10421627;28;20203;-77
2023/05/10 05:25:12;;;;;;;4.40;1.88;;;;;;;;;;10424514;28;20619;-78
2023/05/10 05:30:13;;;;;;;1.05;1.05;;;;;;;;;;10423792;28;20203;-77
2023/05/10 05:35:14;;;;;;;1.60;1.60;;;;;;;;;;10408947;28;20214;-77
2023/05/10 05:40:15;;;;;;;1.90;1.80;;;;;;;;;;10430455;28;20233;-78
2023/05/10 05:45:17;;;;;;;1.33;1.10;;;;;;;;;;10405505;28;20207;-76
2023/05/10 05:50:18;;;;;;;3.63;1.35;;;;;;;;;;10396549;28;20303;-79
2023/05/10 05:55:19;;;;;;;1.88;1.48;;;;;;;;;;10423434;28;20281;-80
2023/05/10 06:00:21;;;;;;;3.65;1.75;;;;;;;;;;10427204;28;20218;-77
2023/05/10 06:05:22;;;;;;;2.00;1.65;;;;;;;;;;10418760;28;20290;-77
2023/05/10 06:10:23;;;;;;;1.95;1.95;;;;;;;;;;10388127;28;20227;-76
2023/05/10 06:15:24;;;;;;;2.88;1.70;;;;;;;;;;10391289;28;20215;-78
2023/05/10 06:20:25;;;;;;;2.88;1.73;;;;;;;;;;10418459;28;20230;-78
2023/05/10 06:25:26;;;;;;;2.05;1.88;;;;;;;;;;10423826;28;20226;-78
2023/05/10 06:30:28;;;;;;;1.70;1.70;;;;;;;;;;10416870;28;20674;-78
2023/05/10 06:35:29;;;;;;;1.90;1.80;;;;;;;;;;10411891;28;20288;-78
2023/05/10 06:40:30;;;;;;;2.25;1.77;;;;;;;;;;10419491;28;20223;-76
2023/05/10 06:45:31;;;;;;;1.98;1.80;;;;;;;;;;10405447;28;20720;-75
2023/05/10 06:50:33;;;;;;;2.33;1.58;;;;;;;;;;10381221;28;20233;-76
2023/05/10 06:55:34;;;;;;;2.92;1.88;;;;;;;;;;10399943;28;20273;-77
2023/05/10 07:00:36;;;;;;;2.38;2.28;;;;;;;;;;10414224;28;20279;-79
2023/05/10 07:05:37;;;;;;;1.98;1.73;;;;;;;;;;10423489;28;20236;-78
2023/05/10 07:10:38;;;;;;;6.07;2.03;;;;;;;;;;10417190;28;22381;-78
2023/05/10 07:15:40;;;;;;;2.05;1.90;;;;;;;;;;10418851;28;20233;-77
2023/05/10 07:20:41;;;;;;;2.85;2.20;;;;;;;;;;10424834;28;20350;-79
2023/05/10 07:25:42;;;;;;;2.08;2.08;;;;;;;;;;10425132;28;20227;-78
2023/05/10 07:30:44;;;;;;;2.22;2.13;;;;;;;;;;10385232;28;20214;-78
2023/05/10 07:35:49;;;;;;;2.22;2.15;;;;;;;;;;10408600;28;20226;-78
2023/05/10 07:40:49;;;;;;;2.10;2.10;;;;;;;;;;10400063;28;20622;-78
2023/05/10 07:45:51;;;;;;;4.88;2.25;;;;;;;;;;10416146;28;20253;-78
2023/05/10 07:50:52;;;;;;;2.33;2.13;;;;;;;;;;10410591;28;20316;-77
2023/05/10 07:55:55;;;;;;;2.10;2.00;;;;;;;;;;10417101;28;20214;-77
2023/05/10 08:00:56;;;;;;;1.83;1.83;;;;;;;;;;10392543;28;20712;-77
2023/05/10 08:05:57;;;;;;;1.88;1.77;;;;;;;;;;10393153;28;20261;-80
2023/05/10 08:10:58;;;;;;;1.65;1.65;;;;;;;;;;10412365;28;20218;-77
2023/05/10 08:15:59;;;;;;;5.10;1.95;;;;;;;;;;10389762;28;21458;-77
2023/05/10 08:21:00;;;;;;;2.08;1.98;;;;;;;;;;10408039;28;20214;-77
2023/05/10 08:26:01;;;;;;;2.47;2.42;;;;;;;;;;10395839;28;20214;-79
2023/05/10 08:31:02;;;;;;;2.72;2.53;;;;;;;;;;10404747;28;20226;-76
2023/05/10 08:36:03;;;;;;;2.15;2.15;;;;;;;;;;10370177;28;20896;-78
2023/05/10 08:41:05;;;;;;;2.83;2.47;;;;;;;;;;10412301;28;20750;-77
2023/05/10 08:46:07;;;;;;;2.05;2.05;;;;;;;;;;10393612;28;20221;-76
2023/05/10 08:51:09;;;;;;;2.85;2.50;;;;;;;;;;10375415;28;20230;-75
2023/05/10 08:56:10;;;;;;;2.47;2.38;;;;;;;;;;10392939;28;20227;-76
2023/05/10 09:01:11;;;;;;;5.88;3.28;;;;;;;;;;10415606;28;20972;-76
2023/05/10 09:06:13;;;;;;;4.15;3.00;;;;;;;;;;10396369;28;20767;-78
2023/05/10 09:11:14;;;;;;;2.67;2.58;;;;;;;;;;10410262;28;21634;-79
2023/05/10 09:16:15;;;;;;;3.20;3.00;;;;;;;;;;10415947;28;20221;-77
2023/05/10 09:21:16;;;;;;;3.20;2.85;;;;;;;;;;10379264;28;20227;-78
2023/05/10 09:26:17;;;;;;;2.33;2.25;;;;;;;;;;10412565;28;20215;-76
2023/05/10 09:31:18;;;;;;;2.83;2.55;;;;;;;;;;10394607;28;20222;-78
2023/05/10 09:36:19;;;;;;;2.58;2.45;;;;;;;;;;10388140;28;20231;-78
2023/05/10 09:41:21;;;;;;;2.92;2.83;;;;;;;;;;10411055;28;20219;-78
2023/05/10 09:46:22;;;;;;;2.70;2.50;;;;;;;;;;10395445;28;20215;-77
2023/05/10 09:51:24;;;;;;;4.55;3.05;;;;;;;;;;10396065;28;20261;-77
2023/05/10 09:56:35;;;;;;;2.70;2.60;;;;;;;;;;10407880;28;20223;-77
2023/05/10 10:01:36;;;;;;;2.70;2.53;;;;;;;;;;10394482;28;20241;-77
2023/05/10 10:06:41;;;;;;;3.40;3.10;;;;;;;;;;10400493;28;20685;-78
2023/05/10 10:11:42;;;;;;;3.45;3.15;;;;;;;;;;10419494;28;20803;-78
2023/05/10 10:16:43;;;;;;;3.60;3.40;;;;;;;;;;10402169;28;20290;-77
2023/05/10 10:21:44;;;;;;;3.80;3.60;;;;;;;;;;10412312;28;20281;-77
2023/05/10 10:26:47;;;;;;;7.97;3.53;;;;;;;;;;10413415;28;20839;-77
2023/05/10 10:32:06;;;;;;;3.60;3.30;;;;;;;;;;10374851;28;20783;-79
2023/05/10 10:37:07;;;;;;;4.72;3.50;;;;;;;;;;10395428;28;20974;-77
2023/05/10 10:42:08;;;;;;;3.75;3.45;;;;;;;;;;10399694;28;20226;-80
2023/05/10 10:47:14;;;;;;;4.60;4.30;;;;;;;;;;10397750;28;20272;-79
2023/05/10 10:52:15;;;;;;;4.05;3.85;;;;;;;;;;10390158;28;20232;-78
2023/05/10 10:57:18;;;;;;;5.85;3.72;;;;;;;;;;10391864;28;20762;-77
2023/05/10 11:02:38;;;;;;;7.85;3.97;;;;;;;;;;10412376;28;20221;-79
2023/05/10 11:07:51;;;;;;;6.72;4.75;;;;;;;;;;10409474;28;20320;-78
2023/05/10 11:12:53;;;;;;;5.60;4.55;;;;;;;;;;10389931;28;20219;-77
2023/05/10 11:17:55;;;;;;;4.82;4.35;;;;;;;;;;10393052;28;20231;-79
2023/05/10 11:22:56;;;;;;;5.35;4.85;;;;;;;;;;10389849;28;20223;-77
2023/05/10 11:27:58;;;;;;;5.55;5.05;;;;;;;;;;10375000;28;20218;-76
2023/05/10 11:32:59;;;;;;;4.88;4.57;;;;;;;;;;10393188;28;20226;-77
2023/05/10 11:38:00;;;;;;;5.57;5.25;;;;;;;;;;10400268;28;20270;-78
2023/05/10 11:43:01;;;;;;;5.40;4.90;;;;;;;;;;10411359;28;20238;-78
2023/05/10 11:48:03;;;;;;;6.18;5.57;;;;;;;;;;10395126;28;20214;-78
2023/05/10 11:53:04;;;;;;;5.78;4.65;;;;;;;;;;10387820;28;20218;-78
2023/05/10 11:58:05;;;;;;;5.97;5.55;;;;;;;;;;10397038;28;20221;-78
2023/05/10 12:03:06;;;;;;;6.95;6.00;;;;;;;;;;10389454;28;20214;-79
2023/05/10 12:08:13;;;;;;;6.20;5.70;;;;;;;;;;10400735;28;20321;-79
2023/05/10 12:13:15;;;;;;;5.75;5.35;;;;;;;;;;10393949;28;20211;-78
2023/05/10 12:18:24;;;;;;;6.15;5.65;;;;;;;;;;10393829;28;20223;-76
2023/05/10 12:23:26;;;;;;;6.43;5.70;;;;;;;;;;10388132;28;20223;-78
2023/05/10 12:28:30;;;;;;;7.00;5.18;;;;;;;;;;10407618;28;20225;-76
2023/05/10 12:33:38;;;;;;;5.65;5.22;;;;;;;;;;10407144;28;20784;-77
2023/05/10 12:38:42;;;;;;;8.80;5.65;;;;;;;;;;10389094;28;21069;-77
2023/05/10 12:43:43;;;;;;;5.30;4.93;;;;;;;;;;10413264;28;20321;-79
2023/05/10 12:48:54;;;;;;;8.00;5.55;;;;;;;;;;10414227;28;20732;-79
2023/05/10 12:53:55;;;;;;;5.72;5.25;;;;;;;;;;10397366;28;20211;-80
2023/05/10 12:58:56;;;;;;;5.65;5.25;;;;;;;;;;10414283;28;20282;-80
2023/05/10 13:03:57;;;;;;;3.88;3.67;;;;;;;;;;10404184;28;20551;-80
2023/05/10 13:08:58;;;;;;;3.75;3.45;;;;;;;;;;10396301;28;20214;-78
2023/05/10 13:13:59;;;;;;;4.43;4.22;;;;;;;;;;10406077;28;20413;-80
2023/05/10 13:19:00;;;;;;;4.25;3.72;;;;;;;;;;10414564;28;20242;-79
2023/05/10 13:24:01;;;;;;;4.07;3.85;;;;;;;;;;10414682;28;20215;-79
2023/05/10 13:29:03;;;;;;;3.70;3.53;;;;;;;;;;10407198;28;20606;-77
2023/05/10 13:34:04;;;;;;;3.63;3.42;;;;;;;;;;10393234;28;20227;-77
2023/05/10 13:39:05;;;;;;;3.20;3.00;;;;;;;;;;10412667;28;20230;-77
2023/05/10 13:44:06;;;;;;;1.85;1.85;;;;;;;;;;10404258;28;20203;-77
2023/05/10 13:49:07;;;;;;;1.52;1.52;;;;;;;;;;10398161;28;20225;-78
2023/05/10 13:54:08;;;;;;;1.30;1.30;;;;;;;;;;10394724;28;20325;-78
2023/05/10 13:59:09;;;;;;;1.80;1.80;;;;;;;;;;10399781;28;20700;-77
2023/05/10 14:04:10;;;;;;;1.77;1.77;;;;;;;;;;10395444;28;21153;-79
2023/05/10 14:09:12;;;;;;;1.92;1.83;;;;;;;;;;10397296;28;20965;-78
2023/05/10 14:14:13;;;;;;;2.60;2.50;;;;;;;;;;10401631;28;20230;-77
2023/05/10 14:19:14;;;;;;;2.80;2.70;;;;;;;;;;10410927;28;20772;-78
2023/05/10 14:24:15;;;;;;;2.75;2.70;;;;;;;;;;10415117;28;20218;-78
2023/05/10 14:29:16;;;;;;;2.30;2.25;;;;;;;;;;10419249;28;20211;-76
2023/05/10 14:34:17;;;;;;;2.22;2.22;;;;;;;;;;10404362;28;20606;-78
2023/05/10 14:39:18;;;;;;;3.38;3.28;;;;;;;;;;10393478;28;20233;-78
2023/05/10 14:44:19;;;;;;;2.80;2.80;;;;;;;;;;10416804;28;20225;-79
2023/05/10 14:49:22;;;;;;;2.40;2.30;;;;;;;;;;10395077;28;20257;-79
2023/05/10 14:54:23;;;;;;;2.83;2.72;;;;;;;;;;10424947;28;20222;-78
2023/05/10 14:59:24;;;;;;;2.35;2.35;;;;;;;;;;10422549;28;20326;-78
2023/05/10 15:04:25;;;;;;;3.10;3.00;;;;;;;;;;10422194;28;21186;-77
2023/05/10 15:09:27;;;;;;;2.30;2.30;;;;;;;;;;10391819;28;21137;-78
2023/05/10 15:14:28;;;;;;;3.90;2.83;;;;;;;;;;10396509;28;20219;-77
2023/05/10 15:19:29;;;;;;;2.17;2.10;;;;;;;;;;10410213;28;20206;-78
2023/05/10 15:24:30;;;;;;;2.85;2.85;;;;;;;;;;10380605;28;20211;-77
2023/05/10 15:29:32;;;;;;;3.22;3.13;;;;;;;;;;10408248;28;20250;-79
2023/05/10 15:34:33;;;;;;;3.20;3.13;;;;;;;;;;10406292;28;20221;-78
2023/05/10 15:39:34;;;;;;;3.03;2.92;;;;;;;;;;10400111;28;20589;-78
2023/05/10 15:44:38;;;;;;;3.05;2.95;;;;;;;;;;10399071;28;20862;-79
2023/05/10 15:49:39;;;;;;;2.17;2.17;;;;;;;;;;10397786;28;20257;-79
2023/05/10 15:54:40;;;;;;;2.70;2.60;;;;;;;;;;10413494;28;20241;-77
2023/05/10 15:59:41;;;;;;;2.40;2.30;;;;;;;;;;10416021;28;20242;-79
2023/05/10 16:04:43;;;;;;;2.80;2.80;;;;;;;;;;10396322;28;20227;-79
2023/05/10 16:09:45;;;;;;;2.70;2.47;;;;;;;;;;10397430;28;20228;-78
2023/05/10 16:14:46;;;;;;;2.97;2.88;;;;;;;;;;10403491;28;20277;-77
2023/05/10 16:19:47;;;;;;;1.80;1.80;;;;;;;;;;10398866;28;20218;-79
2023/05/10 16:24:48;;;;;;;2.55;2.45;;;;;;;;;;10402176;28;20237;-78
2023/05/10 16:29:49;;;;;;;2.40;2.40;;;;;;;;;;10413560;28;20678;-76
2023/05/10 16:34:52;;;;;;;2.22;2.22;;;;;;;;;;10397142;28;20229;-77
2023/05/10 16:39:53;;;;;;;1.55;1.55;;;;;;;;;;10388340;28;21865;-77
2023/05/10 16:44:54;;;;;;;1.52;1.45;;;;;;;;;;10369967;28;20248;-78
2023/05/10 16:49:55;;;;;;;1.30;1.30;;;;;;;;;;10407708;28;20226;-78
2023/05/10 16:54:56;;;;;;;1.20;1.20;;;;;;;;;;10410406;28;20333;-76
2023/05/10 16:59:57;;;;;;;1.00;0.93;;;;;;;;;;10387289;28;20622;-78
2023/05/10 17:04:58;;;;;;;1.13;1.13;;;;;;;;;;10393649;28;20218;-75
2023/05/10 17:09:59;;;;;;;1.70;1.50;;;;;;;;;;10376735;28;20250;-78
2023/05/10 17:15:00;;;;;;;1.35;1.35;;;;;;;;;;10397658;28;20233;-78
2023/05/10 17:20:01;;;;;;;1.80;1.80;;;;;;;;;;10420826;28;20252;-78
2023/05/10 17:25:03;;;;;;;1.35;1.35;;;;;;;;;;10401857;28;20221;-79
2023/05/10 17:30:04;;;;;;;2.53;1.50;;;;;;;;;;10415504;28;20217;-79
2023/05/10 17:35:05;;;;;;;2.50;1.83;;;;;;;;;;10436255;28;20225;-78
2023/05/10 17:40:08;;;;;;;1.42;1.30;;;;;;;;;;10402696;28;20215;-78
2023/05/10 17:45:10;;;;;;;1.60;1.60;;;;;;;;;;10415201;28;20207;-78
2023/05/10 17:50:11;;;;;;;1.85;1.75;;;;;;;;;;10376066;28;20226;-77
2023/05/10 17:55:12;;;;;;;1.23;1.13;;;;;;;;;;10393898;28;20213;-77
2023/05/10 18:00:13;;;;;;;1.20;1.20;;;;;;;;;;10394040;28;20716;-79
2023/05/10 18:05:15;;;;;;;4.45;1.80;;;;;;;;;;10416374;28;20955;-77
2023/05/10 18:10:16;;;;;;;1.55;1.45;;;;;;;;;;10412344;28;20222;-78
2023/05/10 18:15:17;;;;;;;1.15;1.10;;;;;;;;;;10399399;28;20314;-78
2023/05/10 18:20:18;;;;;;;1.52;1.42;;;;;;;;;;10403665;28;20210;-78
2023/05/10 18:25:19;;;;;;;1.70;1.70;;;;;;;;;;10401174;28;20596;-79
2023/05/10 18:30:21;;;;;;;1.35;1.33;;;;;;;;;;10418305;28;20222;-79
2023/05/10 18:35:22;;;;;;;1.30;1.20;;;;;;;;;;10417785;28;20233;-79
2023/05/10 18:40:23;;;;;;;1.27;1.27;;;;;;;;;;10410430;28;20296;-78
2023/05/10 18:45:24;;;;;;;1.38;1.38;;;;;;;;;;10408592;28;20211;-78
2023/05/10 18:50:25;;;;;;;1.60;1.60;;;;;;;;;;10391066;28;20292;-80
2023/05/10 18:55:27;;;;;;;3.80;1.75;;;;;;;;;;10392071;28;20337;-79
2023/05/10 19:00:28;;;;;;;1.45;1.45;;;;;;;;;;10415121;28;20861;-78
2023/05/10 19:05:30;;;;;;;1.80;1.70;;;;;;;;;;10373859;28;20680;-77
2023/05/10 19:10:31;;;;;;;1.50;1.40;;;;;;;;;;10400095;28;20318;-77
2023/05/10 19:15:32;;;;;;;1.90;1.70;;;;;;;;;;10388680;28;20226;-76
2023/05/10 19:20:33;;;;;;;1.30;1.30;;;;;;;;;;10392876;28;20844;-77
2023/05/10 19:25:34;;;;;;;1.52;1.50;;;;;;;;;;10419800;28;20574;-79
2023/05/10 19:30:36;;;;;;;2.60;2.40;;;;;;;;;;10421693;28;20219;-78
2023/05/10 19:35:37;;;;;;;4.43;3.03;;;;;;;;;;10399174;28;20309;-77
2023/05/10 19:40:38;;;;;;;4.35;4.05;;;;;;;;;;10377348;28;20242;-77
2023/05/10 19:45:39;;;;;;;5.38;4.88;;;;;;;;;;10407871;28;20214;-78
2023/05/10 19:50:40;;;;;;;6.75;6.15;;;;;;;;;;10410093;28;20628;-77
2023/05/10 19:55:41;;;;;;;5.55;5.10;;;;;;;;;;10408641;28;20223;-78
2023/05/10 20:00:42;;;;;;;4.45;4.13;;;;;;;;;;10378083;28;20226;-76
2023/05/10 20:05:43;;;;;;;5.13;3.53;;;;;;;;;;10366600;28;20302;-76
2023/05/10 20:10:44;;;;;;;4.45;4.10;;;;;;;;;;10380586;28;20210;-75
2023/05/10 20:15:45;;;;;;;6.07;5.47;;;;;;;;;;10414937;28;20236;-76
2023/05/10 20:20:46;;;;;;;4.13;3.80;;;;;;;;;;10412827;28;20223;-76
2023/05/10 20:25:47;;;;;;;3.08;2.90;;;;;;;;;;10410739;28;20229;-78
2023/05/10 20:30:50;;;;;;;2.63;2.60;;;;;;;;;;10407034;28;20218;-75
2023/05/10 20:35:51;;;;;;;3.03;2.90;;;;;;;;;;10409366;28;20223;-74
2023/05/10 20:40:52;;;;;;;2.15;2.05;;;;;;;;;;10393963;28;20218;-75
2023/05/10 20:45:53;;;;;;;2.97;2.50;;;;;;;;;;10412163;28;20218;-77
2023/05/10 20:50:54;;;;;;;2.08;1.98;;;;;;;;;;10412056;28;20218;-78
2023/05/10 20:55:55;;;;;;;3.67;2.38;;;;;;;;;;10393553;28;20276;-77
2023/05/10 21:00:56;;;;;;;1.85;1.85;;;;;;;;;;10410910;28;20245;-75
2023/05/10 21:05:57;;;;;;;1.77;1.77;;;;;;;;;;10391341;28;20211;-77
2023/05/10 21:10:58;;;;;;;2.00;2.00;;;;;;;;;;10389443;28;20654;-77
2023/05/10 21:15:59;;;;;;;2.42;2.33;;;;;;;;;;10400136;28;20222;-76
2023/05/10 21:21:00;;;;;;;1.70;1.70;;;;;;;;;;10410644;28;20241;-73
2023/05/10 21:26:02;;;;;;;2.00;2.00;;;;;;;;;;10413152;28;20222;-76
2023/05/10 21:31:03;;;;;;;2.38;1.55;;;;;;;;;;10414080;28;20221;-77
2023/05/10 21:36:04;;;;;;;2.30;2.20;;;;;;;;;;10411480;28;21255;-75
2023/05/10 21:41:06;;;;;;;2.72;2.55;;;;;;;;;;10386301;28;20219;-75
2023/05/10 21:46:08;;;;;;;2.45;2.45;;;;;;;;;;10389763;28;20445;-77
2023/05/10 21:51:09;;;;;;;2.65;2.65;;;;;;;;;;10411919;28;20223;-76
2023/05/10 21:56:10;;;;;;;3.22;3.10;;;;;;;;;;10408880;28;20291;-76
2023/05/10 22:01:13;;;;;;;2.30;2.25;;;;;;;;;;10439992;28;20210;-78
2023/05/10 22:06:14;;;;;;;2.47;2.38;;;;;;;;;;10441811;28;20218;-77
2023/05/10 22:11:15;;;;;;;2.45;2.35;;;;;;;;;;10439196;28;20229;-77
2023/05/10 22:16:16;;;;;;;2.72;2.63;;;;;;;;;;10458642;28;20222;-76
2023/05/10 22:21:17;;;;;;;2.45;2.35;;;;;;;;;;10436838;28;20493;-76
2023/05/10 22:26:18;;;;;;;2.20;2.20;;;;;;;;;;10458711;28;20867;-76
2023/05/10 22:31:19;;;;;;;2.47;2.45;;;;;;;;;;10439375;28;20264;-76
2023/05/10 22:36:20;;;;;;;2.63;2.47;;;;;;;;;;10421506;28;20222;-78
2023/05/10 22:41:22;;;;;;;2.85;2.75;;;;;;;;;;10437964;28;20229;-76
2023/05/10 22:46:22;;;;;;;2.72;2.55;;;;;;;;;;10458139;28;20300;-77
2023/05/10 22:51:23;;;;;;;2.72;2.58;;;;;;;;;;10458036;28;20222;-77
2023/05/10 22:56:25;;;;;;;2.08;1.98;;;;;;;;;;10460713;28;20222;-78
2023/05/10 23:01:26;;;;;;;2.05;2.05;;;;;;;;;;10457049;28;20263;-77
2023/05/10 23:06:27;;;;;;;2.42;2.42;;;;;;;;;;10454023;28;20218;-76
2023/05/10 23:11:28;;;;;;;2.88;2.78;;;;;;;;;;10455740;28;20761;-77
2023/05/10 23:16:29;;;;;;;2.60;2.50;;;;;;;;;;10455430;28;20225;-77
2023/05/10 23:21:30;;;;;;;2.30;2.20;;;;;;;;;;10440880;28;20213;-77
2023/05/10 23:26:31;;;;;;;2.30;2.20;;;;;;;;;;10456440;28;20608;-76
2023/05/10 23:31:32;;;;;;;3.20;3.10;;;;;;;;;;10455306;28;20214;-77
2023/05/10 23:36:33;;;;;;;3.15;2.90;;;;;;;;;;10460428;28;20627;-77
2023/05/10 23:41:34;;;;;;;2.90;2.90;;;;;;;;;;10435418;28;20249;-76
2023/05/10 23:46:35;;;;;;;3.63;3.42;;;;;;;;;;10438762;28;20229;-77
2023/05/10 23:51:36;;;;;;;3.22;3.13;;;;;;;;;;10440657;28;20868;-77
2023/05/10 23:56:37;;;;;;;3.30;3.15;;;;;;;;;;10442585;28;20773;-77
